sensor_id;sensor_type;location;lat;lon;timestamp;P1;durP1;ratioP1;P2;durP2;ratioP2
80384;SDS011;69702;44.618;33.604;2023-05-28T00:00:12;23.50;;;13.30;;
80384;SDS011;69702;44.618;33.604;2023-05-28T00:02:42;23.05;;;13.43;;
80384;SDS011;69702;44.618;33.604;2023-05-28T00:05:09;21.30;;;12.93;;
80384;SDS011;69702;44.618;33.604;2023-05-28T00:07:36;23.27;;;14.43;;
80384;SDS011;69702;44.618;33.604;2023-05-28T00:10:02;24.55;;;14.25;;
80384;SDS011;69702;44.618;33.604;2023-05-28T00:12:30;22.67;;;13.23;;
80384;SDS011;69702;44.618;33.604;2023-05-28T00:14:56;24.10;;;13.43;;
80384;SDS011;69702;44.618;33.604;2023-05-28T00:17:23;22.67;;;13.18;;
80384;SDS011;69702;44.618;33.604;2023-05-28T00:19:49;23.80;;;13.75;;
80384;SDS011;69702;44.618;33.604;2023-05-28T00:22:15;23.23;;;14.05;;
80384;SDS011;69702;44.618;33.604;2023-05-28T00:24:41;22.63;;;14.35;;
80384;SDS011;69702;44.618;33.604;2023-05-28T00:27:07;25.73;;;14.40;;
80384;SDS011;69702;44.618;33.604;2023-05-28T00:29:33;27.48;;;15.95;;
80384;SDS011;69702;44.618;33.604;2023-05-28T00:31:59;29.38;;;16.08;;
80384;SDS011;69702;44.618;33.604;2023-05-28T00:34:25;28.95;;;16.45;;
80384;SDS011;69702;44.618;33.604;2023-05-28T00:36:52;25.90;;;15.60;;
80384;SDS011;69702;44.618;33.604;2023-05-28T00:39:22;23.83;;;14.95;;
80384;SDS011;69702;44.618;33.604;2023-05-28T00:41:48;27.95;;;16.33;;
80384;SDS011;69702;44.618;33.604;2023-05-28T00:44:14;28.15;;;15.55;;
80384;SDS011;69702;44.618;33.604;2023-05-28T00:46:40;28.08;;;15.70;;
80384;SDS011;69702;44.618;33.604;2023-05-28T00:49:11;28.05;;;17.55;;
80384;SDS011;69702;44.618;33.604;2023-05-28T00:51:38;27.90;;;15.40;;
80384;SDS011;69702;44.618;33.604;2023-05-28T00:54:05;29.52;;;16.42;;
80384;SDS011;69702;44.618;33.604;2023-05-28T00:56:31;26.73;;;15.40;;
80384;SDS011;69702;44.618;33.604;2023-05-28T00:58:58;24.42;;;14.68;;
80384;SDS011;69702;44.618;33.604;2023-05-28T01:01:27;25.90;;;15.70;;
80384;SDS011;69702;44.618;33.604;2023-05-28T01:03:55;24.98;;;14.60;;
80384;SDS011;69702;44.618;33.604;2023-05-28T01:06:21;24.23;;;14.68;;
80384;SDS011;69702;44.618;33.604;2023-05-28T01:08:48;23.47;;;13.40;;
80384;SDS011;69702;44.618;33.604;2023-05-28T01:11:15;22.50;;;12.95;;
80384;SDS011;69702;44.618;33.604;2023-05-28T01:13:43;20.67;;;12.95;;
80384;SDS011;69702;44.618;33.604;2023-05-28T01:16:10;23.27;;;12.90;;
80384;SDS011;69702;44.618;33.604;2023-05-28T01:18:36;21.15;;;13.60;;
80384;SDS011;69702;44.618;33.604;2023-05-28T01:21:05;21.70;;;11.80;;
80384;SDS011;69702;44.618;33.604;2023-05-28T01:24:05;20.15;;;12.95;;
80384;SDS011;69702;44.618;33.604;2023-05-28T01:26:24;23.30;;;12.82;;
80384;SDS011;69702;44.618;33.604;2023-05-28T01:28:52;20.75;;;12.93;;
80384;SDS011;69702;44.618;33.604;2023-05-28T01:31:18;23.95;;;13.65;;
80384;SDS011;69702;44.618;33.604;2023-05-28T01:33:44;22.10;;;13.73;;
80384;SDS011;69702;44.618;33.604;2023-05-28T01:36:14;24.48;;;14.73;;
80384;SDS011;69702;44.618;33.604;2023-05-28T01:38:46;23.50;;;13.98;;
80384;SDS011;69702;44.618;33.604;2023-05-28T01:41:13;22.67;;;13.57;;
80384;SDS011;69702;44.618;33.604;2023-05-28T01:43:40;23.52;;;14.48;;
80384;SDS011;69702;44.618;33.604;2023-05-28T01:46:08;24.67;;;13.87;;
80384;SDS011;69702;44.618;33.604;2023-05-28T01:48:35;23.45;;;14.30;;
80384;SDS011;69702;44.618;33.604;2023-05-28T01:51:02;25.95;;;15.85;;
80384;SDS011;69702;44.618;33.604;2023-05-28T01:53:28;27.27;;;15.10;;
80384;SDS011;69702;44.618;33.604;2023-05-28T01:55:55;28.17;;;15.35;;
80384;SDS011;69702;44.618;33.604;2023-05-28T01:58:22;25.00;;;14.30;;
80384;SDS011;69702;44.618;33.604;2023-05-28T02:01:50;25.77;;;14.18;;
80384;SDS011;69702;44.618;33.604;2023-05-28T02:03:56;22.25;;;14.90;;
80384;SDS011;69702;44.618;33.604;2023-05-28T02:06:23;27.02;;;14.98;;
80384;SDS011;69702;44.618;33.604;2023-05-28T02:08:49;27.77;;;15.73;;
80384;SDS011;69702;44.618;33.604;2023-05-28T02:11:16;34.77;;;17.10;;
80384;SDS011;69702;44.618;33.604;2023-05-28T02:13:42;32.45;;;15.82;;
80384;SDS011;69702;44.618;33.604;2023-05-28T02:16:10;32.65;;;16.77;;
80384;SDS011;69702;44.618;33.604;2023-05-28T02:18:37;36.13;;;17.40;;
80384;SDS011;69702;44.618;33.604;2023-05-28T02:21:03;32.05;;;17.17;;
80384;SDS011;69702;44.618;33.604;2023-05-28T02:23:29;32.00;;;15.70;;
80384;SDS011;69702;44.618;33.604;2023-05-28T02:25:55;31.52;;;17.05;;
80384;SDS011;69702;44.618;33.604;2023-05-28T02:28:21;31.75;;;17.08;;
80384;SDS011;69702;44.618;33.604;2023-05-28T02:30:50;31.10;;;16.05;;
80384;SDS011;69702;44.618;33.604;2023-05-28T02:33:16;30.50;;;15.70;;
80384;SDS011;69702;44.618;33.604;2023-05-28T02:35:44;29.90;;;16.80;;
80384;SDS011;69702;44.618;33.604;2023-05-28T02:38:11;31.50;;;17.48;;
80384;SDS011;69702;44.618;33.604;2023-05-28T02:40:37;34.97;;;17.30;;
80384;SDS011;69702;44.618;33.604;2023-05-28T02:43:03;32.33;;;17.17;;
80384;SDS011;69702;44.618;33.604;2023-05-28T02:45:30;29.13;;;16.23;;
80384;SDS011;69702;44.618;33.604;2023-05-28T02:47:56;26.73;;;16.17;;
80384;SDS011;69702;44.618;33.604;2023-05-28T02:50:22;30.13;;;15.95;;
80384;SDS011;69702;44.618;33.604;2023-05-28T02:53:01;28.77;;;17.80;;
80384;SDS011;69702;44.618;33.604;2023-05-28T02:55:28;28.70;;;15.50;;
80384;SDS011;69702;44.618;33.604;2023-05-28T02:57:54;26.83;;;14.90;;
80384;SDS011;69702;44.618;33.604;2023-05-28T03:00:21;25.92;;;14.90;;
80384;SDS011;69702;44.618;33.604;2023-05-28T03:02:47;25.05;;;14.80;;
80384;SDS011;69702;44.618;33.604;2023-05-28T03:05:14;27.08;;;13.82;;
80384;SDS011;69702;44.618;33.604;2023-05-28T03:07:40;27.05;;;13.93;;
80384;SDS011;69702;44.618;33.604;2023-05-28T03:10:06;22.65;;;14.40;;
80384;SDS011;69702;44.618;33.604;2023-05-28T03:12:34;22.40;;;13.68;;
80384;SDS011;69702;44.618;33.604;2023-05-28T03:15:00;24.58;;;15.60;;
80384;SDS011;69702;44.618;33.604;2023-05-28T03:17:26;26.40;;;15.50;;
80384;SDS011;69702;44.618;33.604;2023-05-28T03:19:52;22.33;;;13.40;;
80384;SDS011;69702;44.618;33.604;2023-05-28T03:22:21;21.98;;;13.70;;
80384;SDS011;69702;44.618;33.604;2023-05-28T03:24:47;26.77;;;15.57;;
80384;SDS011;69702;44.618;33.604;2023-05-28T03:27:19;23.05;;;13.93;;
80384;SDS011;69702;44.618;33.604;2023-05-28T03:29:45;24.83;;;14.77;;
80384;SDS011;69702;44.618;33.604;2023-05-28T03:32:30;23.35;;;13.05;;
80384;SDS011;69702;44.618;33.604;2023-05-28T03:34:56;19.63;;;12.52;;
80384;SDS011;69702;44.618;33.604;2023-05-28T03:37:31;21.38;;;12.43;;
80384;SDS011;69702;44.618;33.604;2023-05-28T03:39:57;22.63;;;12.95;;
80384;SDS011;69702;44.618;33.604;2023-05-28T03:42:24;20.42;;;14.38;;
80384;SDS011;69702;44.618;33.604;2023-05-28T03:44:50;20.92;;;13.93;;
80384;SDS011;69702;44.618;33.604;2023-05-28T03:47:16;19.55;;;12.55;;
80384;SDS011;69702;44.618;33.604;2023-05-28T03:49:42;21.83;;;12.45;;
80384;SDS011;69702;44.618;33.604;2023-05-28T03:52:08;19.80;;;13.00;;
80384;SDS011;69702;44.618;33.604;2023-05-28T03:54:45;22.00;;;12.98;;
80384;SDS011;69702;44.618;33.604;2023-05-28T03:57:13;21.35;;;13.82;;
80384;SDS011;69702;44.618;33.604;2023-05-28T03:59:39;23.77;;;14.65;;
80384;SDS011;69702;44.618;33.604;2023-05-28T04:02:05;23.02;;;14.88;;
80384;SDS011;69702;44.618;33.604;2023-05-28T04:04:31;21.63;;;14.93;;
80384;SDS011;69702;44.618;33.604;2023-05-28T04:06:57;20.30;;;14.88;;
80384;SDS011;69702;44.618;33.604;2023-05-28T04:09:23;20.33;;;13.25;;
80384;SDS011;69702;44.618;33.604;2023-05-28T04:11:49;21.80;;;14.48;;
80384;SDS011;69702;44.618;33.604;2023-05-28T04:14:15;20.25;;;13.27;;
80384;SDS011;69702;44.618;33.604;2023-05-28T04:16:41;24.57;;;13.27;;
80384;SDS011;69702;44.618;33.604;2023-05-28T04:19:07;23.60;;;14.20;;
80384;SDS011;69702;44.618;33.604;2023-05-28T04:21:33;19.90;;;13.65;;
80384;SDS011;69702;44.618;33.604;2023-05-28T04:24:00;20.65;;;13.80;;
80384;SDS011;69702;44.618;33.604;2023-05-28T04:26:26;20.92;;;13.23;;
80384;SDS011;69702;44.618;33.604;2023-05-28T04:28:52;20.25;;;13.80;;
80384;SDS011;69702;44.618;33.604;2023-05-28T04:31:19;21.17;;;14.18;;
80384;SDS011;69702;44.618;33.604;2023-05-28T04:33:45;19.77;;;13.20;;
80384;SDS011;69702;44.618;33.604;2023-05-28T04:36:12;22.55;;;13.55;;
80384;SDS011;69702;44.618;33.604;2023-05-28T04:38:41;21.33;;;14.20;;
80384;SDS011;69702;44.618;33.604;2023-05-28T04:41:07;21.73;;;12.70;;
80384;SDS011;69702;44.618;33.604;2023-05-28T04:43:34;18.67;;;12.85;;
80384;SDS011;69702;44.618;33.604;2023-05-28T04:46:01;23.02;;;14.57;;
80384;SDS011;69702;44.618;33.604;2023-05-28T04:48:30;24.73;;;14.27;;
80384;SDS011;69702;44.618;33.604;2023-05-28T04:51:01;21.98;;;14.05;;
80384;SDS011;69702;44.618;33.604;2023-05-28T04:53:31;24.65;;;16.00;;
80384;SDS011;69702;44.618;33.604;2023-05-28T04:56:01;32.30;;;18.63;;
80384;SDS011;69702;44.618;33.604;2023-05-28T04:58:29;25.80;;;16.80;;
80384;SDS011;69702;44.618;33.604;2023-05-28T05:00:57;28.00;;;16.05;;
80384;SDS011;69702;44.618;33.604;2023-05-28T05:03:25;33.35;;;19.80;;
80384;SDS011;69702;44.618;33.604;2023-05-28T05:05:51;24.02;;;15.13;;
80384;SDS011;69702;44.618;33.604;2023-05-28T05:08:18;25.75;;;16.08;;
80384;SDS011;69702;44.618;33.604;2023-05-28T05:10:44;23.27;;;13.23;;
80384;SDS011;69702;44.618;33.604;2023-05-28T05:13:10;22.90;;;14.60;;
80384;SDS011;69702;44.618;33.604;2023-05-28T05:15:37;23.15;;;14.07;;
80384;SDS011;69702;44.618;33.604;2023-05-28T05:18:03;23.35;;;15.35;;
80384;SDS011;69702;44.618;33.604;2023-05-28T05:20:29;21.90;;;14.13;;
80384;SDS011;69702;44.618;33.604;2023-05-28T05:22:56;23.40;;;14.43;;
80384;SDS011;69702;44.618;33.604;2023-05-28T05:25:22;24.75;;;14.60;;
80384;SDS011;69702;44.618;33.604;2023-05-28T05:27:49;23.40;;;14.13;;
80384;SDS011;69702;44.618;33.604;2023-05-28T05:30:15;22.50;;;15.00;;
80384;SDS011;69702;44.618;33.604;2023-05-28T05:32:42;20.92;;;14.20;;
80384;SDS011;69702;44.618;33.604;2023-05-28T05:35:08;21.85;;;12.95;;
80384;SDS011;69702;44.618;33.604;2023-05-28T05:37:43;21.95;;;14.07;;
80384;SDS011;69702;44.618;33.604;2023-05-28T05:40:27;19.93;;;13.80;;
80384;SDS011;69702;44.618;33.604;2023-05-28T05:43:26;24.08;;;16.17;;
80384;SDS011;69702;44.618;33.604;2023-05-28T05:45:53;23.50;;;13.90;;
80384;SDS011;69702;44.618;33.604;2023-05-28T05:48:19;25.55;;;14.45;;
80384;SDS011;69702;44.618;33.604;2023-05-28T05:53:19;21.60;;;13.98;;
80384;SDS011;69702;44.618;33.604;2023-05-28T05:55:46;21.70;;;14.23;;
80384;SDS011;69702;44.618;33.604;2023-05-28T05:58:13;21.10;;;15.05;;
80384;SDS011;69702;44.618;33.604;2023-05-28T06:00:40;21.52;;;14.90;;
80384;SDS011;69702;44.618;33.604;2023-05-28T06:03:07;20.52;;;14.35;;
80384;SDS011;69702;44.618;33.604;2023-05-28T06:05:57;19.43;;;13.73;;
80384;SDS011;69702;44.618;33.604;2023-05-28T06:08:42;18.00;;;12.73;;
80384;SDS011;69702;44.618;33.604;2023-05-28T06:11:13;16.73;;;12.50;;
80384;SDS011;69702;44.618;33.604;2023-05-28T06:13:40;19.85;;;15.05;;
80384;SDS011;69702;44.618;33.604;2023-05-28T06:16:07;22.35;;;14.93;;
80384;SDS011;69702;44.618;33.604;2023-05-28T06:18:33;22.03;;;16.07;;
80384;SDS011;69702;44.618;33.604;2023-05-28T06:21:01;19.08;;;14.57;;
80384;SDS011;69702;44.618;33.604;2023-05-28T06:23:29;20.58;;;16.17;;
80384;SDS011;69702;44.618;33.604;2023-05-28T06:25:55;20.85;;;17.52;;
80384;SDS011;69702;44.618;33.604;2023-05-28T06:28:21;19.30;;;15.13;;
80384;SDS011;69702;44.618;33.604;2023-05-28T06:30:47;20.23;;;15.87;;
80384;SDS011;69702;44.618;33.604;2023-05-28T06:33:14;23.13;;;16.48;;
80384;SDS011;69702;44.618;33.604;2023-05-28T06:35:40;20.08;;;15.35;;
80384;SDS011;69702;44.618;33.604;2023-05-28T06:38:06;19.65;;;14.77;;
80384;SDS011;69702;44.618;33.604;2023-05-28T06:40:32;20.43;;;14.37;;
80384;SDS011;69702;44.618;33.604;2023-05-28T06:42:58;22.88;;;15.88;;
80384;SDS011;69702;44.618;33.604;2023-05-28T06:45:46;20.45;;;17.00;;
80384;SDS011;69702;44.618;33.604;2023-05-28T06:48:12;21.75;;;17.17;;
80384;SDS011;69702;44.618;33.604;2023-05-28T06:50:38;22.98;;;15.77;;
80384;SDS011;69702;44.618;33.604;2023-05-28T06:53:04;20.57;;;15.37;;
80384;SDS011;69702;44.618;33.604;2023-05-28T06:55:32;20.08;;;16.55;;
80384;SDS011;69702;44.618;33.604;2023-05-28T06:58:18;20.58;;;14.85;;
80384;SDS011;69702;44.618;33.604;2023-05-28T07:01:19;18.42;;;14.90;;
80384;SDS011;69702;44.618;33.604;2023-05-28T07:04:15;17.87;;;14.10;;
80384;SDS011;69702;44.618;33.604;2023-05-28T07:06:44;19.20;;;14.35;;
80384;SDS011;69702;44.618;33.604;2023-05-28T07:09:17;22.38;;;15.18;;
80384;SDS011;69702;44.618;33.604;2023-05-28T07:11:43;20.25;;;14.35;;
80384;SDS011;69702;44.618;33.604;2023-05-28T07:14:09;19.73;;;14.67;;
80384;SDS011;69702;44.618;33.604;2023-05-28T07:16:35;19.67;;;14.23;;
80384;SDS011;69702;44.618;33.604;2023-05-28T07:19:02;19.70;;;13.55;;
80384;SDS011;69702;44.618;33.604;2023-05-28T07:21:29;17.63;;;13.90;;
80384;SDS011;69702;44.618;33.604;2023-05-28T07:23:55;20.48;;;14.75;;
80384;SDS011;69702;44.618;33.604;2023-05-28T07:26:21;18.63;;;13.07;;
80384;SDS011;69702;44.618;33.604;2023-05-28T07:28:47;19.63;;;14.00;;
80384;SDS011;69702;44.618;33.604;2023-05-28T07:31:13;16.90;;;13.45;;
80384;SDS011;69702;44.618;33.604;2023-05-28T07:33:39;20.35;;;15.02;;
80384;SDS011;69702;44.618;33.604;2023-05-28T07:36:06;19.80;;;14.43;;
80384;SDS011;69702;44.618;33.604;2023-05-28T07:38:35;16.92;;;13.10;;
80384;SDS011;69702;44.618;33.604;2023-05-28T07:41:01;23.45;;;15.90;;
80384;SDS011;69702;44.618;33.604;2023-05-28T07:43:59;18.27;;;12.15;;
80384;SDS011;69702;44.618;33.604;2023-05-28T07:46:27;15.95;;;12.45;;
80384;SDS011;69702;44.618;33.604;2023-05-28T07:49:13;16.37;;;11.63;;
80384;SDS011;69702;44.618;33.604;2023-05-28T07:51:42;20.38;;;14.00;;
80384;SDS011;69702;44.618;33.604;2023-05-28T07:54:21;20.55;;;15.65;;
80384;SDS011;69702;44.618;33.604;2023-05-28T07:56:47;19.13;;;13.50;;
80384;SDS011;69702;44.618;33.604;2023-05-28T07:59:24;16.30;;;12.77;;
80384;SDS011;69702;44.618;33.604;2023-05-28T08:01:51;17.97;;;13.97;;
80384;SDS011;69702;44.618;33.604;2023-05-28T08:04:18;17.95;;;13.57;;
80384;SDS011;69702;44.618;33.604;2023-05-28T08:06:44;21.70;;;13.15;;
80384;SDS011;69702;44.618;33.604;2023-05-28T08:09:13;18.73;;;14.73;;
80384;SDS011;69702;44.618;33.604;2023-05-28T08:11:45;18.88;;;14.18;;
80384;SDS011;69702;44.618;33.604;2023-05-28T08:14:10;19.40;;;12.90;;
80384;SDS011;69702;44.618;33.604;2023-05-28T08:16:40;19.80;;;15.18;;
80384;SDS011;69702;44.618;33.604;2023-05-28T08:19:09;17.90;;;13.07;;
80384;SDS011;69702;44.618;33.604;2023-05-28T08:21:35;17.63;;;13.63;;
80384;SDS011;69702;44.618;33.604;2023-05-28T08:24:02;19.20;;;13.50;;
80384;SDS011;69702;44.618;33.604;2023-05-28T08:26:30;14.90;;;12.53;;
80384;SDS011;69702;44.618;33.604;2023-05-28T08:28:56;16.23;;;13.43;;
80384;SDS011;69702;44.618;33.604;2023-05-28T08:31:24;18.20;;;13.68;;
80384;SDS011;69702;44.618;33.604;2023-05-28T08:34:02;19.02;;;14.60;;
80384;SDS011;69702;44.618;33.604;2023-05-28T08:36:29;18.45;;;13.73;;
80384;SDS011;69702;44.618;33.604;2023-05-28T08:38:57;16.67;;;13.27;;
80384;SDS011;69702;44.618;33.604;2023-05-28T08:41:24;15.38;;;13.07;;
80384;SDS011;69702;44.618;33.604;2023-05-28T08:43:51;16.77;;;12.65;;
80384;SDS011;69702;44.618;33.604;2023-05-28T08:46:18;17.70;;;13.10;;
80384;SDS011;69702;44.618;33.604;2023-05-28T08:49:04;15.32;;;12.90;;
80384;SDS011;69702;44.618;33.604;2023-05-28T08:51:32;18.63;;;14.13;;
80384;SDS011;69702;44.618;33.604;2023-05-28T08:53:59;17.08;;;14.02;;
80384;SDS011;69702;44.618;33.604;2023-05-28T08:56:29;15.48;;;13.02;;
80384;SDS011;69702;44.618;33.604;2023-05-28T08:58:55;18.35;;;14.10;;
80384;SDS011;69702;44.618;33.604;2023-05-28T09:01:21;19.13;;;14.10;;
80384;SDS011;69702;44.618;33.604;2023-05-28T09:04:05;21.30;;;16.30;;
80384;SDS011;69702;44.618;33.604;2023-05-28T09:06:40;18.73;;;13.80;;
80384;SDS011;69702;44.618;33.604;2023-05-28T09:09:11;17.25;;;13.88;;
80384;SDS011;69702;44.618;33.604;2023-05-28T09:11:46;19.52;;;15.45;;
80384;SDS011;69702;44.618;33.604;2023-05-28T09:14:13;23.77;;;15.80;;
80384;SDS011;69702;44.618;33.604;2023-05-28T09:16:42;19.17;;;14.37;;
80384;SDS011;69702;44.618;33.604;2023-05-28T09:19:14;22.13;;;19.65;;
80384;SDS011;69702;44.618;33.604;2023-05-28T09:21:57;18.55;;;15.55;;
80384;SDS011;69702;44.618;33.604;2023-05-28T09:24:33;18.48;;;14.40;;
80384;SDS011;69702;44.618;33.604;2023-05-28T09:27:19;19.02;;;13.80;;
80384;SDS011;69702;44.618;33.604;2023-05-28T09:29:47;20.10;;;14.57;;
80384;SDS011;69702;44.618;33.604;2023-05-28T09:32:17;19.33;;;13.68;;
80384;SDS011;69702;44.618;33.604;2023-05-28T09:34:49;20.42;;;15.50;;
80384;SDS011;69702;44.618;33.604;2023-05-28T09:37:18;17.75;;;13.20;;
80384;SDS011;69702;44.618;33.604;2023-05-28T09:39:46;18.60;;;13.25;;
80384;SDS011;69702;44.618;33.604;2023-05-28T09:42:12;19.83;;;13.70;;
80384;SDS011;69702;44.618;33.604;2023-05-28T09:44:39;17.92;;;13.98;;
80384;SDS011;69702;44.618;33.604;2023-05-28T09:47:15;18.70;;;13.90;;
80384;SDS011;69702;44.618;33.604;2023-05-28T09:49:43;19.42;;;13.90;;
80384;SDS011;69702;44.618;33.604;2023-05-28T09:52:21;18.70;;;13.57;;
80384;SDS011;69702;44.618;33.604;2023-05-28T09:54:51;16.63;;;12.57;;
80384;SDS011;69702;44.618;33.604;2023-05-28T09:57:31;16.92;;;13.45;;
80384;SDS011;69702;44.618;33.604;2023-05-28T09:59:59;18.08;;;12.85;;
80384;SDS011;69702;44.618;33.604;2023-05-28T10:05:28;16.50;;;12.32;;
80384;SDS011;69702;44.618;33.604;2023-05-28T10:07:57;21.23;;;15.23;;
80384;SDS011;69702;44.618;33.604;2023-05-28T10:10:26;20.05;;;12.95;;
80384;SDS011;69702;44.618;33.604;2023-05-28T10:12:53;16.45;;;11.77;;
80384;SDS011;69702;44.618;33.604;2023-05-28T10:15:21;17.42;;;12.80;;
80384;SDS011;69702;44.618;33.604;2023-05-28T10:17:47;18.17;;;11.63;;
80384;SDS011;69702;44.618;33.604;2023-05-28T10:20:14;21.30;;;12.88;;
80384;SDS011;69702;44.618;33.604;2023-05-28T10:22:42;18.48;;;14.65;;
80384;SDS011;69702;44.618;33.604;2023-05-28T10:25:08;14.57;;;11.70;;
80384;SDS011;69702;44.618;33.604;2023-05-28T10:27:34;18.10;;;12.48;;
80384;SDS011;69702;44.618;33.604;2023-05-28T10:30:02;18.67;;;12.07;;
80384;SDS011;69702;44.618;33.604;2023-05-28T10:32:41;16.42;;;12.00;;
80384;SDS011;69702;44.618;33.604;2023-05-28T10:35:11;17.02;;;12.20;;
80384;SDS011;69702;44.618;33.604;2023-05-28T10:37:38;19.67;;;12.93;;
80384;SDS011;69702;44.618;33.604;2023-05-28T10:40:08;19.40;;;13.70;;
80384;SDS011;69702;44.618;33.604;2023-05-28T10:42:39;19.13;;;13.50;;
80384;SDS011;69702;44.618;33.604;2023-05-28T10:45:08;20.52;;;12.15;;
80384;SDS011;69702;44.618;33.604;2023-05-28T10:47:39;20.40;;;13.23;;
80384;SDS011;69702;44.618;33.604;2023-05-28T10:52:36;21.15;;;13.32;;
80384;SDS011;69702;44.618;33.604;2023-05-28T10:55:03;20.47;;;12.60;;
80384;SDS011;69702;44.618;33.604;2023-05-28T11:00:11;24.20;;;13.02;;
80384;SDS011;69702;44.618;33.604;2023-05-28T11:02:41;20.88;;;14.80;;
80384;SDS011;69702;44.618;33.604;2023-05-28T11:05:08;21.38;;;13.57;;
80384;SDS011;69702;44.618;33.604;2023-05-28T11:07:39;20.53;;;12.80;;
80384;SDS011;69702;44.618;33.604;2023-05-28T11:10:07;21.80;;;13.85;;
80384;SDS011;69702;44.618;33.604;2023-05-28T11:12:43;20.20;;;14.20;;
80384;SDS011;69702;44.618;33.604;2023-05-28T11:15:11;22.77;;;13.45;;
80384;SDS011;69702;44.618;33.604;2023-05-28T11:17:41;18.38;;;12.95;;
80384;SDS011;69702;44.618;33.604;2023-05-28T11:20:24;19.90;;;12.37;;
80384;SDS011;69702;44.618;33.604;2023-05-28T11:22:51;18.83;;;13.55;;
80384;SDS011;69702;44.618;33.604;2023-05-28T11:25:18;22.52;;;16.10;;
80384;SDS011;69702;44.618;33.604;2023-05-28T11:27:47;18.15;;;11.80;;
80384;SDS011;69702;44.618;33.604;2023-05-28T11:30:16;21.70;;;12.85;;
80384;SDS011;69702;44.618;33.604;2023-05-28T11:32:44;18.40;;;11.87;;
80384;SDS011;69702;44.618;33.604;2023-05-28T11:35:12;18.52;;;12.50;;
80384;SDS011;69702;44.618;33.604;2023-05-28T11:37:40;17.50;;;12.60;;
80384;SDS011;69702;44.618;33.604;2023-05-28T11:40:07;17.30;;;11.32;;
80384;SDS011;69702;44.618;33.604;2023-05-28T11:42:38;20.73;;;14.25;;
80384;SDS011;69702;44.618;33.604;2023-05-28T11:45:07;21.93;;;15.37;;
80384;SDS011;69702;44.618;33.604;2023-05-28T11:47:34;21.25;;;13.68;;
80384;SDS011;69702;44.618;33.604;2023-05-28T11:50:08;21.17;;;14.05;;
80384;SDS011;69702;44.618;33.604;2023-05-28T11:52:36;18.45;;;12.95;;
80384;SDS011;69702;44.618;33.604;2023-05-28T11:55:02;28.20;;;19.73;;
80384;SDS011;69702;44.618;33.604;2023-05-28T11:57:32;22.00;;;13.17;;
80384;SDS011;69702;44.618;33.604;2023-05-28T12:00:04;20.75;;;12.10;;
80384;SDS011;69702;44.618;33.604;2023-05-28T12:02:45;19.63;;;13.30;;
80384;SDS011;69702;44.618;33.604;2023-05-28T12:05:13;25.67;;;17.20;;
80384;SDS011;69702;44.618;33.604;2023-05-28T12:07:43;24.83;;;17.33;;
80384;SDS011;69702;44.618;33.604;2023-05-28T12:10:15;22.93;;;13.47;;
80384;SDS011;69702;44.618;33.604;2023-05-28T12:12:49;21.08;;;13.27;;
80384;SDS011;69702;44.618;33.604;2023-05-28T12:15:17;22.33;;;14.05;;
80384;SDS011;69702;44.618;33.604;2023-05-28T12:17:56;23.50;;;13.35;;
80384;SDS011;69702;44.618;33.604;2023-05-28T12:23:08;25.33;;;15.57;;
80384;SDS011;69702;44.618;33.604;2023-05-28T12:25:53;23.27;;;14.02;;
80384;SDS011;69702;44.618;33.604;2023-05-28T12:28:20;24.77;;;16.08;;
80384;SDS011;69702;44.618;33.604;2023-05-28T12:30:51;18.48;;;12.73;;
80384;SDS011;69702;44.618;33.604;2023-05-28T12:33:19;21.55;;;13.38;;
80384;SDS011;69702;44.618;33.604;2023-05-28T12:35:45;20.67;;;12.45;;
80384;SDS011;69702;44.618;33.604;2023-05-28T12:38:12;19.50;;;12.35;;
80384;SDS011;69702;44.618;33.604;2023-05-28T12:40:38;21.20;;;13.50;;
80384;SDS011;69702;44.618;33.604;2023-05-28T12:43:06;19.80;;;11.82;;
80384;SDS011;69702;44.618;33.604;2023-05-28T12:45:33;22.75;;;13.07;;
80384;SDS011;69702;44.618;33.604;2023-05-28T12:48:00;19.65;;;12.15;;
80384;SDS011;69702;44.618;33.604;2023-05-28T12:50:26;18.83;;;12.50;;
80384;SDS011;69702;44.618;33.604;2023-05-28T12:52:52;18.45;;;12.50;;
80384;SDS011;69702;44.618;33.604;2023-05-28T12:55:19;22.35;;;12.60;;
80384;SDS011;69702;44.618;33.604;2023-05-28T12:57:46;20.30;;;12.95;;
80384;SDS011;69702;44.618;33.604;2023-05-28T13:00:12;19.80;;;12.32;;
80384;SDS011;69702;44.618;33.604;2023-05-28T13:02:39;42.40;;;13.60;;
80384;SDS011;69702;44.618;33.604;2023-05-28T13:05:06;21.45;;;13.07;;
80384;SDS011;69702;44.618;33.604;2023-05-28T13:07:32;19.08;;;11.98;;
80384;SDS011;69702;44.618;33.604;2023-05-28T13:09:59;18.40;;;11.73;;
80384;SDS011;69702;44.618;33.604;2023-05-28T13:12:25;19.75;;;13.18;;
80384;SDS011;69702;44.618;33.604;2023-05-28T13:14:51;24.02;;;15.02;;
80384;SDS011;69702;44.618;33.604;2023-05-28T13:17:17;21.13;;;13.15;;
80384;SDS011;69702;44.618;33.604;2023-05-28T13:19:45;20.13;;;11.80;;
80384;SDS011;69702;44.618;33.604;2023-05-28T13:22:12;19.98;;;12.68;;
80384;SDS011;69702;44.618;33.604;2023-05-28T13:24:39;20.10;;;13.57;;
80384;SDS011;69702;44.618;33.604;2023-05-28T13:27:05;21.30;;;12.82;;
80384;SDS011;69702;44.618;33.604;2023-05-28T13:29:30;19.23;;;13.27;;
80384;SDS011;69702;44.618;33.604;2023-05-28T13:31:56;22.67;;;13.93;;
80384;SDS011;69702;44.618;33.604;2023-05-28T13:34:22;21.95;;;13.80;;
80384;SDS011;69702;44.618;33.604;2023-05-28T13:36:49;19.33;;;13.20;;
80384;SDS011;69702;44.618;33.604;2023-05-28T13:39:15;21.42;;;13.88;;
80384;SDS011;69702;44.618;33.604;2023-05-28T13:41:41;21.13;;;13.48;;
80384;SDS011;69702;44.618;33.604;2023-05-28T13:44:07;17.40;;;12.27;;
80384;SDS011;69702;44.618;33.604;2023-05-28T13:46:34;19.17;;;12.85;;
80384;SDS011;69702;44.618;33.604;2023-05-28T13:49:00;23.15;;;14.52;;
80384;SDS011;69702;44.618;33.604;2023-05-28T13:51:26;23.07;;;14.43;;
80384;SDS011;69702;44.618;33.604;2023-05-28T13:53:52;22.42;;;12.00;;
80384;SDS011;69702;44.618;33.604;2023-05-28T13:56:18;20.65;;;14.05;;
80384;SDS011;69702;44.618;33.604;2023-05-28T13:58:44;17.65;;;11.48;;
80384;SDS011;69702;44.618;33.604;2023-05-28T14:01:10;21.93;;;12.87;;
80384;SDS011;69702;44.618;33.604;2023-05-28T14:03:36;20.27;;;12.73;;
80384;SDS011;69702;44.618;33.604;2023-05-28T14:06:02;16.63;;;12.15;;
80384;SDS011;69702;44.618;33.604;2023-05-28T14:08:29;19.77;;;12.98;;
80384;SDS011;69702;44.618;33.604;2023-05-28T14:10:55;19.80;;;12.67;;
80384;SDS011;69702;44.618;33.604;2023-05-28T14:13:21;20.17;;;12.57;;
80384;SDS011;69702;44.618;33.604;2023-05-28T14:15:47;19.92;;;12.20;;
80384;SDS011;69702;44.618;33.604;2023-05-28T14:18:13;17.77;;;11.88;;
80384;SDS011;69702;44.618;33.604;2023-05-28T14:20:38;23.40;;;14.10;;
80384;SDS011;69702;44.618;33.604;2023-05-28T14:23:05;24.42;;;15.60;;
80384;SDS011;69702;44.618;33.604;2023-05-28T14:25:31;21.30;;;15.35;;
80384;SDS011;69702;44.618;33.604;2023-05-28T14:27:57;23.73;;;16.42;;
80384;SDS011;69702;44.618;33.604;2023-05-28T14:30:23;19.23;;;12.23;;